Aeroporto :
LOGIN :

Iscrizione | Disclaimer

   EN    FR    IT 

 










Sommario :    VFR   VFR Marginale   IFR   IFR Intensivo   IFR Molto Intensivo
Visibilità : 
Base nubi : 
>= 8 km
>= 3000ft
5 / 8 km
1000 / 3000 ft
1500m / 5 km
500 / 1000 ft
800 / 1500m
200 / 500 ft
< 800m
< 200 ft
Simboli :   Temporali  Nebbia  Neve Forte  Precipitazioni Forti  Vento > 20 kt
SIGMETs :   Varie  Temporali  Ghiacco  Turbolenza  Onda orograficha  Ceneri Vulcaniche






- Altitudine del aeroporto : 137 ft
- Codice IATA : ARN


ESSA - Stockholm-Arlanda

ULTIMO METAR :
  • 271320Z 08008KT 9999 BKN045CB 16/07 Q1023 NOSIG

METARs OBSOLETI :
  • 271250Z 05006KT 020V090 9999 SCT044 OVC096 17/07 Q1023 NOSIG
  • 271220Z 04008KT 9999 SCT047 BKN074 16/07 Q1023 NOSIG
  • 271150Z 03010KT 9999 BKN040 16/07 Q1023 NOSIG
  • 271120Z 36007KT 320V060 9999 BKN041 17/08 Q1023 NOSIG
  • 271050Z 34008KT 290V010 9999 BKN040 16/08 Q1024 NOSIG

TAF TAF ESSA
Valido dal 27 a 12 ore il 28 a 12 ore UTC


271130Z 2712/2812 01008KT 9999 BKN040
TEMPO 2712/2719 SHRA BKN035CB
PROB40 2721/2804 4000 BR



MetMap, La meteo Aeronautica in un colpo d'occhio ! - Copyright ORBIFLY Dicembre 2007 - Disclaimer

ORBIFLY MET'MAP TEAM :

Programmazione e sviluppo : Alexandra Zaïnal
Concezione : Baudouin d'Aumeries
Aiuto per la programmazione : Marc-Olivier Méhu
Supporto tecnico e logistico : Manuel Goepfert
Aiuto per la traduzione : Arnaldo La Scala

Contatto : metmap@orbifly.com




FONTI E CREDITI :

   NOAA